Time;durP1;ratioP1;P1;durP2;ratioP2;P2;SDS_P1;SDS_P2;PMS_P1;PMS_P2;Temp;Humidity;BMP_temperature;BMP_pressure;BME280_temperature;BME280_humidity;BME280_pressure;Samples;Min_cycle;Max_cycle;Signal;HPM_P1;HPM_P2
2022/03/23 00:04:47;;;;;;;19.70;12.20;;;23.00;47.10;;;;;;214686;1299;22704;-57
2022/03/23 00:09:51;;;;;;;20.00;11.90;;;23.00;46.90;;;;;;214536;1299;25639;-55
2022/03/23 00:15:00;;;;;;;22.10;13.00;;;23.00;46.80;;;;;;214655;1299;24966;-56
2022/03/23 00:20:10;;;;;;;22.30;11.70;;;22.90;46.70;;;;;;214459;1299;24448;-56
2022/03/23 00:25:15;;;;;;;21.70;12.50;;;22.90;46.70;;;;;;214960;1299;22638;-56
2022/03/23 00:30:23;;;;;;;22.70;12.80;;;22.80;46.70;;;;;;215154;1297;22655;-54
2022/03/23 00:35:28;;;;;;;23.60;12.80;;;22.80;46.60;;;;;;215091;1297;22571;-55
2022/03/23 00:40:38;;;;;;;22.20;13.80;;;22.70;46.70;;;;;;215287;1299;24368;-56
2022/03/23 00:45:41;;;;;;;25.60;13.70;;;22.70;46.60;;;;;;214781;1299;22570;-56
2022/03/23 00:50:46;;;;;;;21.60;13.00;;;22.70;46.60;;;;;;215128;1299;25303;-56
2022/03/23 00:55:53;;;;;;;24.50;13.30;;;22.60;46.50;;;;;;215283;1299;22579;-56
2022/03/23 01:01:02;;;;;;;23.70;13.70;;;22.50;46.60;;;;;;214920;1299;25290;-54
2022/03/23 01:06:06;;;;;;;22.20;13.80;;;22.50;46.70;;;;;;215091;1299;25346;-56
2022/03/23 01:11:10;;;;;;;24.40;13.80;;;22.40;47.00;;;;;;215349;1297;24947;-56
2022/03/23 01:16:15;;;;;;;25.50;14.20;;;22.40;46.80;;;;;;214826;1297;22640;-59
2022/03/23 01:21:20;;;;;;;25.20;14.30;;;22.40;47.00;;;;;;215194;1299;24787;-58
2022/03/23 01:26:24;;;;;;;23.80;14.10;;;22.40;47.50;;;;;;214833;1297;24639;-56
2022/03/23 01:31:30;;;;;;;23.00;13.80;;;22.40;47.30;;;;;;214894;1299;25298;-56
2022/03/23 01:36:36;;;;;;;22.90;14.50;;;22.30;47.40;;;;;;214998;1299;22822;-55
2022/03/23 01:41:40;;;;;;;23.30;15.00;;;22.30;47.60;;;;;;215071;1299;22608;-59
2022/03/23 01:47:10;;;;;;;24.80;13.70;;;22.30;47.60;;;;;;214718;1299;22582;-59
2022/03/23 01:52:17;;;;;;;25.50;14.90;;;22.20;47.90;;;;;;214808;1299;22650;-60
2022/03/23 01:57:25;;;;;;;21.10;13.40;;;22.30;48.00;;;;;;214643;1299;24483;-56
2022/03/23 02:02:28;;;;;;;25.00;14.10;;;22.30;48.00;;;;;;214576;1299;23024;-56
2022/03/23 02:07:36;;;;;;;22.40;12.70;;;22.70;47.80;;;;;;214889;1299;24376;-59
2022/03/23 02:12:40;;;;;;;24.50;15.70;;;23.10;46.70;;;;;;215283;1299;25597;-55
2022/03/23 02:17:47;;;;;;;24.50;14.50;;;23.60;45.90;;;;;;215188;1299;24400;-55
2022/03/23 02:22:51;;;;;;;23.30;13.80;;;23.90;45.40;;;;;;215049;1299;22831;-59
2022/03/23 02:27:57;;;;;;;20.80;13.60;;;24.00;44.90;;;;;;214766;1299;22563;-58
2022/03/23 02:33:01;;;;;;;22.00;14.30;;;24.10;44.50;;;;;;214765;1299;22659;-57
2022/03/23 02:38:04;;;;;;;25.50;14.20;;;24.10;44.30;;;;;;214903;1299;22560;-57
2022/03/23 02:43:08;;;;;;;20.00;12.30;;;24.10;44.10;;;;;;214697;1299;22565;-57
2022/03/23 02:48:12;;;;;;;20.70;13.40;;;24.00;44.20;;;;;;214590;1299;22567;-58
2022/03/23 03:04:23;;;;;;;22.20;12.40;;;23.50;44.90;;;;;;214917;1299;25383;-62
2022/03/23 03:09:26;;;;;;;20.10;12.30;;;23.30;45.00;;;;;;214979;1299;24571;-61
2022/03/23 03:14:31;;;;;;;19.40;12.40;;;23.20;45.30;;;;;;214947;1299;22646;-57
2022/03/23 03:19:35;;;;;;;21.20;12.60;;;23.10;45.30;;;;;;214667;1299;25300;-58
2022/03/23 03:24:39;;;;;;;17.90;12.50;;;23.00;45.40;;;;;;214737;1299;26533;-57
2022/03/23 03:29:42;;;;;;;21.10;13.10;;;23.00;45.90;;;;;;215058;1299;25407;-56
2022/03/23 03:34:46;;;;;;;18.90;12.20;;;23.00;45.60;;;;;;215170;1299;22583;-57
2022/03/23 03:39:50;;;;;;;20.10;12.90;;;22.90;45.30;;;;;;214831;1299;23760;-58
2022/03/23 03:44:53;;;;;;;21.50;13.10;;;22.80;45.40;;;;;;215293;1297;22571;-56
2022/03/23 03:49:57;;;;;;;20.10;14.20;;;22.80;45.50;;;;;;214908;1298;22662;-60
2022/03/23 03:55:01;;;;;;;17.60;11.90;;;22.70;45.50;;;;;;214762;1299;22800;-57
2022/03/23 04:00:05;;;;;;;22.00;13.10;;;22.70;45.70;;;;;;214676;1297;24361;-58
2022/03/23 04:05:14;;;;;;;21.10;12.60;;;22.60;45.70;;;;;;214616;1299;22881;-55
2022/03/23 04:10:18;;;;;;;19.50;12.80;;;22.50;46.50;;;;;;214940;1297;22700;-58
2022/03/23 04:15:21;;;;;;;18.70;12.60;;;22.40;45.90;;;;;;215096;1298;22573;-57
2022/03/23 04:20:25;;;;;;;21.00;13.40;;;22.40;45.90;;;;;;214994;1297;22603;-61
2022/03/23 04:25:40;;;;;;;21.40;12.60;;;22.30;45.90;;;;;;214962;1298;22569;-56
2022/03/23 04:30:50;;;;;;;18.90;12.60;;;22.30;46.00;;;;;;214897;1298;22603;-57
2022/03/23 04:36:03;;;;;;;22.00;13.80;;;22.20;46.00;;;;;;215051;1297;24428;-56
2022/03/23 04:41:12;;;;;;;20.60;12.80;;;22.20;46.10;;;;;;214889;1299;25529;-57
2022/03/23 04:46:24;;;;;;;18.00;11.90;;;22.20;46.50;;;;;;214603;1299;329776;-57
2022/03/23 04:51:32;;;;;;;18.00;11.30;;;22.50;45.60;;;;;;214769;1299;22739;-61
2022/03/23 04:56:58;;;;;;;19.50;12.20;;;23.00;44.50;;;;;;215024;1297;24312;-57
2022/03/23 05:02:08;;;;;;;17.80;11.10;;;23.20;44.10;;;;;;214833;1297;22670;-56
2022/03/23 05:07:27;;;;;;;17.80;11.60;;;23.50;43.30;;;;;;214881;1299;22697;-57
2022/03/23 05:12:50;;;;;;;18.90;11.70;;;23.60;43.00;;;;;;214876;1298;22717;-58
2022/03/23 05:18:37;;;;;;;19.50;12.30;;;23.70;42.70;;;;;;214972;1298;24594;-57
2022/03/23 05:24:06;;;;;;;;;;;;;;;;;;;;;
2022/03/23 05:29:30;;;;;;;19.50;13.20;;;23.90;42.30;;;;;;215064;1299;22672;-57
2022/03/23 05:34:52;;;;;;;18.30;12.30;;;23.90;42.50;;;;;;215153;1297;25567;-57
2022/03/23 05:40:06;;;;;;;18.50;12.60;;;24.00;42.00;;;;;;215567;1296;23964;-56
2022/03/23 05:45:27;;;;;;;21.70;12.40;;;24.00;42.20;;;;;;215265;1296;22705;-59
2022/03/23 05:50:40;;;;;;;18.20;11.70;;;24.10;41.70;;;;;;215306;1296;22885;-58
2022/03/23 05:55:59;;;;;;;21.20;13.00;;;24.10;41.70;;;;;;215489;1296;22598;-64
2022/03/23 06:01:09;;;;;;;18.80;12.00;;;24.10;41.60;;;;;;215423;1296;23982;-58
2022/03/23 06:06:26;;;;;;;20.60;12.30;;;24.10;41.80;;;;;;215667;1296;24466;-58
2022/03/23 06:11:30;;;;;;;18.20;11.70;;;24.10;41.40;;;;;;215386;1296;25087;-57
2022/03/23 06:16:41;;;;;;;19.20;12.70;;;24.10;41.50;;;;;;215394;1296;22885;-60
2022/03/23 06:22:00;;;;;;;20.20;12.90;;;24.20;41.30;;;;;;215762;1296;22758;-56
2022/03/23 06:27:22;;;;;;;20.30;12.90;;;24.20;41.50;;;;;;215151;1296;23092;-57
2022/03/23 06:32:39;;;;;;;19.30;12.50;;;24.20;41.50;;;;;;215489;1296;24276;-57
2022/03/23 06:37:44;;;;;;;18.90;12.50;;;24.00;41.80;;;;;;214909;1296;22592;-58
2022/03/23 06:43:04;;;;;;;20.40;12.90;;;24.00;41.90;;;;;;215579;1295;24538;-56
2022/03/23 06:48:21;;;;;;;18.70;12.40;;;23.90;42.50;;;;;;215542;1293;22897;-59
2022/03/23 06:53:32;;;;;;;18.90;12.00;;;23.80;42.90;;;;;;215882;1296;25597;-59
2022/03/23 06:58:52;;;;;;;20.60;12.30;;;23.70;43.30;;;;;;215328;1296;25499;-57
2022/03/23 07:04:29;;;;;;;18.20;11.30;;;23.60;43.00;;;;;;215757;1296;22570;-58
2022/03/23 07:09:39;;;;;;;;;;;23.50;44.00;;;;;;215724;1296;22883;-57
2022/03/23 07:14:46;;;;;;;18.90;12.10;;;23.40;44.40;;;;;;215502;1296;23203;-57
2022/03/23 07:19:53;;;;;;;21.60;12.30;;;23.30;44.70;;;;;;215543;1296;22581;-58
2022/03/23 07:25:02;;;;;;;21.30;12.50;;;23.20;44.90;;;;;;215752;1296;22758;-60
2022/03/23 07:30:16;;;;;;;20.60;12.10;;;23.20;45.00;;;;;;214827;1296;22888;-57
2022/03/23 07:35:30;;;;;;;27.20;13.00;;;23.20;45.30;;;;;;215376;1296;22574;-57
2022/03/23 07:40:36;;;;;;;20.20;12.70;;;23.10;45.50;;;;;;215504;1296;22589;-57
2022/03/23 07:45:43;;;;;;;23.50;11.80;;;23.10;45.40;;;;;;215451;1296;22681;-55
2022/03/23 07:50:57;;;;;;;27.30;12.90;;;23.10;45.50;;;;;;215383;1296;22599;-55
2022/03/23 07:56:06;;;;;;;22.60;12.90;;;23.00;45.50;;;;;;215445;1296;22562;-55
2022/03/23 08:01:15;;;;;;;27.30;13.30;;;23.10;45.60;;;;;;215089;1296;22662;-56
2022/03/23 08:06:26;;;;;;;25.10;13.40;;;23.00;45.60;;;;;;215192;1296;24371;-55
2022/03/23 08:11:30;;;;;;;24.00;13.60;;;23.00;46.20;;;;;;215072;1293;23107;-56
2022/03/23 08:16:34;;;;;;;27.40;14.30;;;23.00;45.50;;;;;;215016;1296;22605;-59
2022/03/23 08:21:45;;;;;;;25.60;13.60;;;23.00;45.40;;;;;;214931;1296;25788;-56
2022/03/23 08:26:56;;;;;;;22.50;13.20;;;23.00;45.30;;;;;;215587;1296;26535;-58
2022/03/23 08:32:03;;;;;;;25.00;13.10;;;23.00;44.80;;;;;;215409;1296;22795;-60
2022/03/23 08:37:26;;;;;;;22.80;13.20;;;23.00;45.20;;;;;;215511;1296;22563;-56
2022/03/23 08:42:41;;;;;;;21.40;13.70;;;23.00;44.90;;;;;;215134;1296;22602;-62
2022/03/23 08:47:54;;;;;;;22.70;14.00;;;23.00;44.70;;;;;;215355;1296;22648;-55
2022/03/23 08:53:05;;;;;;;21.30;13.30;;;23.00;44.50;;;;;;215517;1296;22592;-60
2022/03/23 08:58:15;;;;;;;26.60;14.30;;;23.00;44.40;;;;;;215387;1296;23508;-58
2022/03/23 09:03:40;;;;;;;20.60;13.20;;;23.10;44.60;;;;;;215370;1296;22605;-55
2022/03/23 09:08:45;;;;;;;22.60;13.70;;;23.10;44.20;;;;;;215114;1296;25300;-56
2022/03/23 09:13:52;;;;;;;22.40;13.00;;;23.00;44.30;;;;;;215283;1296;22934;-57
2022/03/23 09:19:02;;;;;;;20.50;12.90;;;23.10;44.30;;;;;;215521;1296;26355;-55
2022/03/23 09:24:07;;;;;;;21.70;13.50;;;23.10;44.50;;;;;;215476;1296;25289;-56
2022/03/23 09:29:10;;;;;;;18.50;12.60;;;23.20;44.30;;;;;;214834;1296;25303;-56
2022/03/23 09:34:14;;;;;;;22.20;13.10;;;23.20;43.90;;;;;;215257;1294;24420;-59
2022/03/23 09:39:18;;;;;;;22.00;14.20;;;23.30;44.30;;;;;;215373;1296;23986;-55
2022/03/23 09:44:28;;;;;;;22.80;13.10;;;23.30;43.60;;;;;;215549;1294;22643;-56
2022/03/23 09:49:32;;;;;;;21.50;13.30;;;23.20;43.30;;;;;;215247;1296;24336;-57
2022/03/23 09:54:37;;;;;;;19.30;13.00;;;23.30;43.30;;;;;;215583;1296;22754;-61
2022/03/23 09:59:42;;;;;;;24.70;14.10;;;23.30;43.30;;;;;;215286;1296;26542;-57
2022/03/23 10:05:07;;;;;;;20.00;13.30;;;23.40;43.70;;;;;;215576;1296;25378;-58
2022/03/23 10:10:19;;;;;;;19.50;12.40;;;23.50;43.20;;;;;;215380;1296;24281;-56
2022/03/23 10:16:20;;;;;;;20.40;13.10;;;23.50;42.90;;;;;;215516;1296;22661;-58
2022/03/23 10:21:31;;;;;;;;;;;23.50;42.60;;;;;;214340;1302;22579;-58
2022/03/23 10:26:36;;;;;;;18.30;12.10;;;23.50;42.60;;;;;;214969;1294;22580;-58
2022/03/23 10:31:43;;;;;;;21.40;12.60;;;23.60;42.40;;;;;;215034;1293;22647;-55
2022/03/23 10:36:47;;;;;;;19.50;11.60;;;23.70;42.90;;;;;;215507;1296;22728;-55
2022/03/23 10:42:20;;;;;;;20.50;12.80;;;23.80;42.30;;;;;;215088;1296;22729;-56
2022/03/23 10:47:31;;;;;;;18.40;11.80;;;23.80;42.10;;;;;;215015;1293;22887;-57
2022/03/23 10:52:52;;;;;;;17.60;12.40;;;23.90;42.30;;;;;;215213;1296;22985;-56
2022/03/23 10:58:02;;;;;;;19.70;12.20;;;23.90;42.20;;;;;;215430;1296;25378;-57
2022/03/23 11:03:08;;;;;;;22.40;11.90;;;23.90;42.10;;;;;;215035;1296;22566;-57
2022/03/23 11:08:21;;;;;;;19.90;12.00;;;24.00;41.70;;;;;;214786;1296;24360;-56
2022/03/23 11:19:10;;;;;;;17.30;11.50;;;24.00;41.60;;;;;;215538;1296;22576;-56
2022/03/23 11:24:14;;;;;;;17.70;11.50;;;23.90;41.60;;;;;;215549;1295;22571;-57
2022/03/23 11:29:18;;;;;;;15.70;10.70;;;23.90;41.80;;;;;;215875;1296;22589;-56
2022/03/23 11:34:24;;;;;;;17.20;11.10;;;24.00;41.70;;;;;;215401;1296;22668;-57
2022/03/23 11:39:28;;;;;;;15.50;10.70;;;23.90;42.10;;;;;;215158;1296;22575;-56
2022/03/23 11:44:32;;;;;;;17.30;11.10;;;24.00;41.90;;;;;;215526;1294;22595;-55
2022/03/23 11:49:54;;;;;;;17.80;10.60;;;24.10;41.50;;;;;;215459;1293;22615;-56
2022/03/23 11:55:37;;;;;;;14.90;10.30;;;24.20;41.30;;;;;;215413;1294;22762;-56
2022/03/23 12:00:52;;;;;;;16.30;11.10;;;24.20;40.90;;;;;;214779;1296;24275;-58
2022/03/23 12:06:09;;;;;;;14.20;9.90;;;24.10;40.90;;;;;;214832;1296;22629;-59
2022/03/23 12:11:43;;;;;;;15.70;10.00;;;24.10;41.10;;;;;;215585;1296;23153;-55
2022/03/23 12:16:46;;;;;;;13.90;10.00;;;24.10;41.30;;;;;;215209;1296;22805;-57
2022/03/23 12:22:10;;;;;;;15.30;9.60;;;24.10;41.20;;;;;;215540;1295;22566;-56
2022/03/23 12:27:20;;;;;;;17.60;10.50;;;24.20;41.30;;;;;;215544;1296;22589;-55
2022/03/23 12:32:37;;;;;;;13.90;9.40;;;24.20;41.30;;;;;;215543;1296;22583;-57
2022/03/23 12:37:44;;;;;;;14.50;9.80;;;24.20;41.20;;;;;;215491;1296;22652;-57
2022/03/23 12:42:47;;;;;;;13.30;9.30;;;24.30;41.20;;;;;;215406;1296;22591;-54
2022/03/23 12:47:56;;;;;;;13.40;9.10;;;24.20;41.10;;;;;;215199;1296;25404;-56
2022/03/23 12:58:33;;;;;;;13.50;8.90;;;24.30;41.20;;;;;;215213;1296;25338;-56
2022/03/23 13:03:53;;;;;;;13.10;8.60;;;24.30;41.10;;;;;;215496;1293;24213;-57
2022/03/23 13:08:57;;;;;;;13.40;9.20;;;24.40;40.90;;;;;;215370;1296;24329;-56
2022/03/23 13:14:02;;;;;;;11.90;8.60;;;24.40;40.70;;;;;;215454;1296;25374;-55
2022/03/23 13:19:11;;;;;;;13.50;9.30;;;24.30;40.50;;;;;;215615;1296;25382;-55
2022/03/23 13:24:15;;;;;;;11.30;7.90;;;24.40;40.90;;;;;;215131;1296;22730;-54
2022/03/23 13:29:24;;;;;;;13.80;8.30;;;24.40;40.70;;;;;;215515;1296;24622;-57
2022/03/23 13:34:34;;;;;;;14.50;8.90;;;24.30;40.60;;;;;;215554;1296;24466;-54
2022/03/23 13:39:47;;;;;;;13.20;8.90;;;24.40;40.60;;;;;;215632;1296;25302;-52
2022/03/23 13:44:56;;;;;;;12.10;8.30;;;24.40;40.80;;;;;;215530;1296;25299;-55
2022/03/23 13:50:06;;;;;;;14.30;9.50;;;24.40;40.70;;;;;;215509;1295;24580;-55
2022/03/23 13:55:16;;;;;;;13.60;8.80;;;24.40;41.10;;;;;;215366;1296;22597;-53
2022/03/23 14:00:26;;;;;;;13.40;8.50;;;24.50;40.80;;;;;;214938;1296;24838;-54
2022/03/23 14:05:32;;;;;;;12.90;8.30;;;24.40;40.70;;;;;;215131;1296;22732;-54
2022/03/23 14:10:37;;;;;;;11.50;8.10;;;24.40;40.70;;;;;;215441;1296;22697;-55
2022/03/23 14:15:58;;;;;;;14.10;9.00;;;24.50;40.80;;;;;;215412;1296;25297;-56
2022/03/23 14:21:06;;;;;;;13.60;8.20;;;24.50;40.70;;;;;;215152;1296;22618;-53
2022/03/23 14:26:28;;;;;;;10.80;7.80;;;24.50;40.20;;;;;;215332;1296;22579;-55
2022/03/23 14:31:33;;;;;;;14.00;8.80;;;24.50;40.40;;;;;;215413;1296;24422;-56
2022/03/23 14:36:37;;;;;;;16.50;8.90;;;24.50;40.40;;;;;;215294;1296;22586;-54
2022/03/23 14:41:58;;;;;;;13.60;8.70;;;24.50;40.50;;;;;;215031;1296;22606;-56
2022/03/23 14:47:05;;;;;;;;;;;24.50;40.60;;;;;;215712;1296;24389;-53
2022/03/23 14:52:17;;;;;;;13.40;8.20;;;24.50;40.60;;;;;;215445;1296;23979;-52
2022/03/23 14:57:21;;;;;;;11.10;7.50;;;24.40;40.80;;;;;;215541;1296;24491;-57
2022/03/23 15:02:25;;;;;;;12.00;8.30;;;24.40;40.60;;;;;;214939;1296;24431;-55
2022/03/23 15:18:13;;;;;;;14.70;8.20;;;24.30;40.50;;;;;;215270;1296;24317;-61
2022/03/23 15:23:18;;;;;;;13.90;8.30;;;24.30;40.50;;;;;;215311;1296;25426;-58
2022/03/23 15:28:27;;;;;;;10.80;7.10;;;24.20;40.60;;;;;;215448;1295;22739;-56
2022/03/23 15:33:38;;;;;;;9.80;7.00;;;24.20;40.40;;;;;;215341;1296;24120;-56
2022/03/23 15:38:43;;;;;;;10.00;6.60;;;24.20;40.80;;;;;;215640;1297;24363;-58
2022/03/23 15:43:49;;;;;;;10.60;7.10;;;24.10;40.50;;;;;;215265;1296;27841;-54
2022/03/23 15:48:56;;;;;;;11.00;7.30;;;24.10;40.00;;;;;;215409;1296;22625;-56
2022/03/23 15:54:09;;;;;;;9.50;7.00;;;24.10;40.40;;;;;;215243;1296;24309;-58
2022/03/23 15:59:22;;;;;;;9.70;6.60;;;24.00;40.10;;;;;;215436;1296;24348;-56
2022/03/23 16:04:32;;;;;;;11.00;6.90;;;24.00;40.50;;;;;;214932;1297;25527;-56
2022/03/23 16:09:36;;;;;;;13.70;6.60;;;24.00;40.00;;;;;;214740;1294;24462;-55
2022/03/23 16:14:42;;;;;;;11.90;6.90;;;24.10;40.10;;;;;;214819;1299;22582;-56
2022/03/23 16:19:49;;;;;;;11.10;6.50;;;24.10;39.80;;;;;;215102;1296;25509;-54
2022/03/23 16:24:52;;;;;;;11.70;6.40;;;24.10;40.30;;;;;;215159;1296;22692;-56
2022/03/23 16:30:01;;;;;;;15.20;7.00;;;24.00;40.30;;;;;;214816;1294;22598;-54
2022/03/23 16:35:13;;;;;;;15.80;7.60;;;24.00;41.20;;;;;;214668;1296;25469;-54
2022/03/23 16:40:17;;;;;;;12.80;7.30;;;23.90;41.50;;;;;;222501;1295;22269;-54
2022/03/23 16:45:21;;;;;;;15.40;7.40;;;24.00;41.60;;;;;;222247;1296;197789;-52
2022/03/23 16:50:27;;;;;;;12.70;6.30;;;24.00;42.60;;;;;;222448;1295;23154;-55
2022/03/23 16:55:33;;;;;;;14.50;6.60;;;24.00;42.00;;;;;;218632;1296;22595;-48
2022/03/23 17:00:37;;;;;;;21.40;7.80;;;24.10;42.50;;;;;;214951;1296;24298;-50
2022/03/23 17:16:25;;;;;;;20.80;6.40;;;24.10;43.90;;;;;;215022;1296;22589;-49
2022/03/23 17:21:29;;;;;;;17.10;7.30;;;24.00;44.10;;;;;;215417;1296;22631;-51
2022/03/23 17:26:38;;;;;;;15.00;6.80;;;24.00;43.10;;;;;;215054;1296;22599;-48
2022/03/23 17:31:42;;;;;;;18.70;7.40;;;23.90;41.70;;;;;;215569;1296;24195;-48
2022/03/23 17:36:49;;;;;;;13.60;7.20;;;23.90;41.50;;;;;;215704;1296;24454;-50
2022/03/23 17:41:53;;;;;;;12.30;6.90;;;23.90;41.10;;;;;;215427;1296;24437;-49
2022/03/23 17:46:57;;;;;;;15.80;6.80;;;23.80;41.10;;;;;;214624;1296;25159;-51
2022/03/23 17:52:02;;;;;;;19.00;8.30;;;23.80;41.80;;;;;;215209;1296;25514;-50
2022/03/23 17:57:09;;;;;;;14.10;8.30;;;23.90;41.80;;;;;;215107;1296;25395;-48
2022/03/23 18:02:15;;;;;;;14.00;8.50;;;23.80;40.60;;;;;;215038;1296;24423;-48
2022/03/23 18:07:23;;;;;;;16.70;7.90;;;23.80;40.20;;;;;;215122;1296;22580;-50
2022/03/23 18:12:37;;;;;;;15.10;8.30;;;23.80;40.10;;;;;;215288;1296;25493;-49
2022/03/23 18:17:50;;;;;;;15.50;9.20;;;23.70;40.10;;;;;;215093;1296;22592;-49
2022/03/23 18:23:29;;;;;;;16.60;8.20;;;23.70;39.70;;;;;;215172;1296;25906;-48
2022/03/23 18:28:40;;;;;;;16.30;10.10;;;23.70;40.20;;;;;;215300;1296;26941;-48
2022/03/23 18:33:48;;;;;;;17.00;10.70;;;23.70;39.40;;;;;;215657;1296;22621;-52
2022/03/23 18:38:52;;;;;;;23.90;11.40;;;23.60;39.80;;;;;;215528;1296;24311;-50
2022/03/23 18:44:02;;;;;;;18.70;10.00;;;23.60;40.30;;;;;;215027;1296;24360;-48
2022/03/23 18:49:12;;;;;;;18.70;10.20;;;23.60;39.60;;;;;;215537;1296;22716;-52
2022/03/23 18:54:24;;;;;;;22.30;11.20;;;23.50;39.40;;;;;;215510;1296;24435;-50
2022/03/23 18:59:48;;;;;;;20.20;11.50;;;23.50;39.90;;;;;;215595;1296;23091;-54
2022/03/23 19:05:09;;;;;;;21.10;11.00;;;23.50;39.10;;;;;;215151;1296;25500;-50
2022/03/23 19:10:24;;;;;;;17.20;10.50;;;23.50;39.30;;;;;;214982;1296;24444;-54
2022/03/23 19:15:37;;;;;;;21.10;10.60;;;23.50;39.90;;;;;;215632;1296;23946;-51
2022/03/23 19:21:02;;;;;;;23.80;11.20;;;23.50;39.60;;;;;;215363;1296;22745;-54
2022/03/23 19:26:27;;;;;;;23.60;10.50;;;23.50;40.30;;;;;;215208;1296;25750;-54
2022/03/23 19:31:46;;;;;;;20.40;10.60;;;23.40;41.30;;;;;;215549;1296;24441;-56
2022/03/23 19:37:21;;;;;;;18.80;11.30;;;23.50;41.50;;;;;;215633;1296;22566;-53
2022/03/23 19:42:48;;;;;;;25.70;11.00;;;23.50;41.90;;;;;;215470;1296;22573;-52
2022/03/23 19:48:04;;;;;;;24.40;10.40;;;23.50;42.30;;;;;;215314;1296;22591;-53
2022/03/23 19:53:12;;;;;;;20.00;9.50;;;23.40;42.40;;;;;;214945;1296;25468;-55
2022/03/23 19:58:26;;;;;;;19.10;10.70;;;23.40;43.10;;;;;;215421;1296;24319;-53
2022/03/23 20:03:52;;;;;;;21.00;10.00;;;23.30;43.00;;;;;;215223;1296;25424;-53
2022/03/23 20:09:05;;;;;;;15.90;9.50;;;23.40;43.70;;;;;;215154;1296;22586;-53
2022/03/23 20:14:12;;;;;;;23.00;9.70;;;23.40;43.00;;;;;;215417;1296;24491;-54
2022/03/23 20:19:22;;;;;;;20.20;10.20;;;23.40;43.40;;;;;;215364;1295;24906;-53
2022/03/23 20:24:35;;;;;;;19.20;10.40;;;23.30;43.20;;;;;;215609;1296;22739;-58
2022/03/23 20:29:44;;;;;;;17.50;9.40;;;23.30;43.10;;;;;;215147;1296;22795;-49
2022/03/23 20:35:09;;;;;;;19.40;9.90;;;23.20;43.30;;;;;;215171;1296;26539;-51
2022/03/23 20:40:31;;;;;;;20.80;9.90;;;23.20;42.70;;;;;;215196;1296;22593;-54
2022/03/23 20:46:01;;;;;;;28.70;10.00;;;23.20;44.00;;;;;;214878;1296;24373;-51
2022/03/23 20:51:22;;;;;;;20.20;9.50;;;23.20;44.10;;;;;;215033;1296;24410;-55
2022/03/23 20:56:41;;;;;;;24.00;9.90;;;23.20;44.20;;;;;;215429;1296;24356;-55
2022/03/23 21:01:46;;;;;;;23.00;10.20;;;23.10;44.10;;;;;;214958;1296;24371;-54
2022/03/23 21:06:52;;;;;;;20.90;9.80;;;23.10;44.60;;;;;;215175;1296;24363;-52
2022/03/23 21:11:59;;;;;;;18.60;9.30;;;23.20;44.80;;;;;;215263;1296;22753;-56
2022/03/23 21:17:11;;;;;;;17.10;9.60;;;23.10;44.40;;;;;;214864;1296;24267;-49
2022/03/23 21:22:14;;;;;;;18.10;9.10;;;23.00;44.30;;;;;;215093;1296;24367;-55
2022/03/23 21:27:25;;;;;;;17.00;9.20;;;23.00;44.20;;;;;;214951;1296;24553;-53
2022/03/23 21:32:29;;;;;;;22.50;10.10;;;23.00;44.40;;;;;;214844;1296;22596;-53
2022/03/23 21:37:34;;;;;;;21.20;9.90;;;23.00;44.20;;;;;;215165;1296;22608;-51
2022/03/23 21:42:44;;;;;;;19.30;9.40;;;23.00;46.00;;;;;;214954;1296;22573;-56
2022/03/23 21:47:54;;;;;;;16.10;8.60;;;23.10;46.50;;;;;;214994;1296;25407;-57
2022/03/23 21:53:07;;;;;;;15.30;8.40;;;23.10;46.80;;;;;;215130;1296;22610;-57
2022/03/23 21:58:16;;;;;;;20.40;8.80;;;23.10;46.20;;;;;;215009;1296;22745;-55
2022/03/23 22:03:23;;;;;;;17.50;9.60;;;23.10;46.40;;;;;;214841;1296;22736;-55
2022/03/23 22:08:31;;;;;;;22.40;10.60;;;23.10;46.00;;;;;;215028;1296;24443;-54
2022/03/23 22:13:53;;;;;;;20.40;10.40;;;23.00;45.40;;;;;;215026;1296;22571;-53
2022/03/23 22:19:00;;;;;;;17.10;9.80;;;23.00;46.20;;;;;;215444;1295;26182;-56
2022/03/23 22:24:04;;;;;;;21.20;10.20;;;22.90;46.40;;;;;;215357;1296;22749;-55
2022/03/23 22:29:09;;;;;;;15.20;8.90;;;22.80;46.20;;;;;;215403;1296;23041;-56
2022/03/23 22:34:13;;;;;;;20.50;9.70;;;22.80;46.40;;;;;;215523;1296;22564;-59
2022/03/23 22:39:16;;;;;;;17.60;9.00;;;22.80;46.40;;;;;;215565;1296;22746;-57
2022/03/23 22:44:20;;;;;;;18.10;9.70;;;22.80;46.50;;;;;;215169;1296;22598;-56
2022/03/23 22:49:24;;;;;;;16.60;9.50;;;22.80;46.60;;;;;;215165;1296;22593;-57
2022/03/23 22:54:29;;;;;;;18.70;9.70;;;22.70;46.60;;;;;;215275;1293;24421;-56
2022/03/23 22:59:33;;;;;;;15.10;9.70;;;22.80;46.60;;;;;;215198;1296;22658;-59
2022/03/23 23:04:39;;;;;;;14.90;9.00;;;22.80;46.70;;;;;;215324;1296;22570;-56
2022/03/23 23:09:47;;;;;;;16.10;9.10;;;22.80;47.10;;;;;;215407;1296;26916;-53
2022/03/23 23:15:02;;;;;;;14.30;9.50;;;22.60;46.50;;;;;;215194;1296;24347;-55
2022/03/23 23:20:12;;;;;;;14.20;9.00;;;22.70;46.80;;;;;;215162;1296;25415;-52
2022/03/23 23:25:16;;;;;;;17.00;9.50;;;22.60;46.90;;;;;;215263;1296;24984;-53
2022/03/23 23:30:20;;;;;;;12.40;8.20;;;22.50;46.90;;;;;;215253;1296;23892;-55
2022/03/23 23:35:30;;;;;;;17.10;9.70;;;22.50;47.30;;;;;;215694;1296;25444;-55
2022/03/23 23:40:39;;;;;;;18.00;8.70;;;22.50;47.10;;;;;;215345;1296;22612;-54
2022/03/23 23:45:45;;;;;;;14.50;8.90;;;22.40;46.80;;;;;;215453;1296;23960;-54
2022/03/23 23:50:50;;;;;;;12.80;8.70;;;22.50;46.90;;;;;;215673;1296;24099;-54
2022/03/23 23:55:54;;;;;;;14.70;9.10;;;22.70;46.70;;;;;;215862;1296;25283;-55
